Check out our new PWSWeather beta!
PWSweather.com
Personal Weather Stations
Station Observations
KAZTUCSO57
Countryside Manor, Tucson, AZ 85742

Countryside ManorTucson, AZ 85742

Lat: 32.3692, Lon: -111.066

Elevation: 2307

Station Type: Davis VP Pro+ 6163

http://frogville.us

Latest ConditionsUpdated 3:40:01 AM MST Wednesday, Feb 26, 2020
Currently Today's Max Today's Min Today's Average
Temperature 43.9°F6.6°C 48.8°F9.3°C 43.9°F6.6°C 46.2°F7.9°C
Dew Point 14.4°F-9.8°C 15.6°F-9.1°C 11.6°F-11.3°C 13.8°F-10.1°C
Winds Calm Calm 5.8 mph -9.3 kmh - - 2.1 mph 3.4 kmh
Wind Gusts 1.2 mph1.9 kmh 8.1 mph13.0 kmh - -
Humidity 30% 30% 22% 27%
Pressure 30.31 in1026.4 mb 30.31 in1026.4 mb 30.28 in1025.4 mb -
Hour Temp Dew Point Humidity Winds Wind Gusts Pressure Precip Precip Rate Daily Precip Total
03:40 AM 43.9°F6.6°C 14.4°F-9.8°C 30% Calm Calm 1.2 mph1.9 kmh 30.31 in1026.4 mb - 0.00 in0.0 mm 0.00 in0.0 mm
03:30 AM 44.0°F6.7°C 14.5°F-9.7°C 30% 1.2 mph SE1.9 kmh SE 1.2 mph1.9 kmh 30.31 in1026.4 mb - 0.00 in0.0 mm 0.00 in0.0 mm
03:20 AM 44.4°F6.9°C 14.9°F-9.5°C 30% Calm Calm 1.2 mph1.9 kmh 30.31 in1026.4 mb - 0.00 in0.0 mm 0.00 in0.0 mm
03:10 AM 44.7°F7.1°C 15.1°F-9.4°C 30% 1.2 mph E1.9 kmh E 2.3 mph3.7 kmh 30.30 in1026.1 mb - 0.00 in0.0 mm 0.00 in0.0 mm
03:00 AM 45.2°F7.3°C 15.6°F-9.1°C 30% 1.2 mph ESE1.9 kmh ESE 2.3 mph3.7 kmh 30.30 in1026.1 mb - 0.00 in0.0 mm 0.00 in0.0 mm
02:50 AM 45.4°F7.4°C 14.1°F-9.9°C 28% Calm Calm 2.3 mph3.7 kmh 30.29 in1025.7 mb - 0.00 in0.0 mm 0.00 in0.0 mm
02:40 AM 45.7°F7.6°C 14.4°F-9.8°C 28% 1.2 mph E1.9 kmh E 3.5 mph5.6 kmh 30.29 in1025.7 mb - 0.00 in0.0 mm 0.00 in0.0 mm
02:30 AM 45.9°F7.7°C 14.6°F-9.7°C 28% 1.2 mph NE1.9 kmh NE 3.5 mph5.6 kmh 30.30 in1026.1 mb - 0.00 in0.0 mm 0.00 in0.0 mm
02:20 AM 46.2°F7.9°C 14.0°F-10.0°C 27% 1.2 mph E1.9 kmh E 1.2 mph1.9 kmh 30.30 in1026.1 mb - 0.00 in0.0 mm 0.00 in0.0 mm
02:10 AM 46.1°F7.8°C 13.1°F-10.5°C 26% 1.2 mph NE1.9 kmh NE 3.5 mph5.6 kmh 30.30 in1026.1 mb - 0.00 in0.0 mm 0.00 in0.0 mm
02:00 AM 45.9°F7.7°C 13.7°F-10.2°C 27% 1.2 mph N1.9 kmh N 2.3 mph3.7 kmh 30.29 in1025.7 mb - 0.00 in0.0 mm 0.00 in0.0 mm
01:50 AM 45.7°F7.6°C 13.6°F-10.2°C 27% 2.3 mph ENE3.7 kmh ENE 3.5 mph5.6 kmh 30.30 in1026.1 mb - 0.00 in0.0 mm 0.00 in0.0 mm
01:40 AM 45.9°F7.7°C 14.6°F-9.7°C 28% Calm Calm 2.3 mph3.7 kmh 30.29 in1025.7 mb - 0.00 in0.0 mm 0.00 in0.0 mm
01:30 AM 46.3°F7.9°C 13.2°F-10.4°C 26% 3.5 mph NE5.6 kmh NE 5.8 mph9.3 kmh 30.29 in1025.7 mb - 0.00 in0.0 mm 0.00 in0.0 mm
01:20 AM 46.8°F8.2°C 13.6°F-10.2°C 26% 3.5 mph NE5.6 kmh NE 6.9 mph11.1 kmh 30.29 in1025.7 mb - 0.00 in0.0 mm 0.00 in0.0 mm
01:10 AM 46.8°F8.2°C 12.7°F-10.7°C 25% 4.6 mph NE7.4 kmh NE 8.1 mph13.0 kmh 30.29 in1025.7 mb - 0.00 in0.0 mm 0.00 in0.0 mm
01:00 AM 46.4°F8.0°C 13.3°F-10.4°C 26% 3.5 mph NE5.6 kmh NE 6.9 mph11.1 kmh 30.29 in1025.7 mb - 0.00 in0.0 mm 0.00 in0.0 mm
12:50 AM 47.0°F8.3°C 13.8°F-10.1°C 26% 2.3 mph E3.7 kmh E 4.6 mph7.4 kmh 30.29 in1025.7 mb - 0.00 in0.0 mm 0.00 in0.0 mm
12:40 AM 47.2°F8.4°C 13.1°F-10.5°C 25% 4.6 mph NE7.4 kmh NE 6.9 mph11.1 kmh 30.29 in1025.7 mb - 0.00 in0.0 mm 0.00 in0.0 mm
12:30 AM 47.6°F8.7°C 13.4°F-10.3°C 25% 1.2 mph E1.9 kmh E 3.5 mph5.6 kmh 30.29 in1025.7 mb - 0.00 in0.0 mm 0.00 in0.0 mm
12:20 AM 48.1°F8.9°C 13.0°F-10.6°C 24% 2.3 mph ENE3.7 kmh ENE 4.6 mph7.4 kmh 30.29 in1025.7 mb - 0.00 in0.0 mm 0.00 in0.0 mm
12:10 AM 48.6°F9.2°C 12.4°F-10.9°C 23% 4.6 mph NE7.4 kmh NE 8.1 mph13.0 kmh 30.28 in1025.4 mb - 0.00 in0.0 mm 0.00 in0.0 mm
12:00 AM 48.8°F9.3°C 11.6°F-11.3°C 22% 5.8 mph NE9.3 kmh NE 6.9 mph11.1 kmh 30.29 in1025.7 mb - 0.00 in0.0 mm 0.00 in0.0 mm